createdAt,value
2023-03-21T00:00:00.000Z,6.11
2023-03-21T00:15:00.000Z,5.14
2023-03-21T00:30:00.000Z,4.82
2023-03-21T00:45:00.000Z,4.79
2023-03-21T01:00:00.000Z,4.39
2023-03-21T01:15:00.000Z,4.29
2023-03-21T01:30:00.000Z,4.85
2023-03-21T01:45:00.000Z,4.39
2023-03-21T02:00:00.000Z,4.2
2023-03-21T02:15:00.000Z,4.58
2023-03-21T02:30:00.000Z,4.52
2023-03-21T02:45:00.000Z,4.64
2023-03-21T03:00:00.000Z,4.14
2023-03-21T03:15:00.000Z,4.22
2023-03-21T03:30:00.000Z,4.15
2023-03-21T03:45:00.000Z,4.06
2023-03-21T04:00:00.000Z,4.32
2023-03-21T04:15:00.000Z,4.49
2023-03-21T04:30:00.000Z,5.06
2023-03-21T04:45:00.000Z,5.53
2023-03-21T05:00:00.000Z,7.13
2023-03-21T05:15:00.000Z,6.51
2023-03-21T05:30:00.000Z,5.94
2023-03-21T05:45:00.000Z,7
2023-03-21T06:00:00.000Z,6.5
2023-03-21T06:15:00.000Z,5.59
2023-03-21T06:30:00.000Z,5.96
2023-03-21T06:45:00.000Z,5.86
2023-03-21T07:00:00.000Z,6.6
2023-03-21T07:15:00.000Z,8.58
2023-03-21T07:30:00.000Z,5.8
2023-03-21T07:45:00.000Z,5.58
2023-03-21T08:00:00.000Z,6.09
2023-03-21T08:15:00.000Z,5.79
2023-03-21T08:30:00.000Z,5.21
2023-03-21T08:45:00.000Z,4.54
2023-03-21T09:00:00.000Z,7.27
2023-03-21T09:15:00.000Z,9.74
2023-03-21T09:30:00.000Z,7.45
2023-03-21T09:45:00.000Z,7.61
2023-03-21T10:00:00.000Z,8.82
2023-03-21T10:15:00.000Z,7.36
2023-03-21T10:30:00.000Z,7.71
2023-03-21T10:45:00.000Z,7.21
2023-03-21T11:00:00.000Z,6.98
2023-03-21T11:15:00.000Z,7.73
2023-03-21T11:30:00.000Z,8.16
2023-03-21T11:45:00.000Z,8.52
2023-03-21T12:00:00.000Z,8.36
2023-03-21T12:15:00.000Z,7.79
2023-03-21T12:30:00.000Z,7.18
2023-03-21T12:45:00.000Z,7.22
2023-03-21T13:00:00.000Z,7.79
2023-03-21T13:15:00.000Z,11.18
2023-03-21T13:30:00.000Z,7.86
2023-03-21T13:45:00.000Z,9.01
2023-03-21T14:00:00.000Z,8.86
2023-03-21T14:15:00.000Z,6.69
2023-03-21T14:30:00.000Z,4.84
2023-03-21T14:45:00.000Z,4.81
2023-03-21T15:00:00.000Z,5.51
2023-03-21T15:15:00.000Z,5.21
2023-03-21T15:30:00.000Z,5.14
2023-03-21T15:45:00.000Z,5.06
2023-03-21T16:00:00.000Z,2.68
2023-03-21T16:15:00.000Z,2.34
2023-03-21T16:30:00.000Z,2.79
2023-03-21T16:45:00.000Z,5.51
2023-03-21T17:00:00.000Z,4.27
2023-03-21T17:15:00.000Z,9.26
2023-03-21T17:30:00.000Z,7.89
2023-03-21T17:45:00.000Z,9.49
2023-03-21T18:00:00.000Z,11.46
2023-03-21T18:15:00.000Z,14.39
2023-03-21T18:30:00.000Z,17.36
2023-03-21T18:45:00.000Z,12.25
2023-03-21T19:00:00.000Z,12.98
2023-03-21T19:15:00.000Z,8.15
2023-03-21T19:30:00.000Z,10.51
2023-03-21T19:45:00.000Z,11
2023-03-21T20:00:00.000Z,10.2
2023-03-21T20:15:00.000Z,8.62
2023-03-21T20:30:00.000Z,8.62
2023-03-21T20:45:00.000Z,8.32
2023-03-21T21:00:00.000Z,5.58
2023-03-21T21:15:00.000Z,9.94
2023-03-21T21:30:00.000Z,8.59
2023-03-21T21:45:00.000Z,10.27
2023-03-21T22:00:00.000Z,8.53
2023-03-21T22:15:00.000Z,8.41
2023-03-21T22:30:00.000Z,7.92
2023-03-21T22:45:00.000Z,7.52
2023-03-21T23:00:00.000Z,7.81
2023-03-21T23:15:00.000Z,7.42
2023-03-21T23:30:00.000Z,7.74
2023-03-21T23:45:00.000Z,8.01
